sensor_id;sensor_type;location;lat;lon;timestamp;pressure;altitude;pressure_sealevel;temperature;humidity
59053;BME280;44843;44.728;10.396;2023-11-21T00:02:05;99949.69;;;11.08;100.00
59053;BME280;44843;44.728;10.396;2023-11-21T00:04:31;99946.53;;;10.90;100.00
59053;BME280;44843;44.728;10.396;2023-11-21T00:06:56;99942.88;;;10.92;100.00
59053;BME280;44843;44.728;10.396;2023-11-21T00:09:21;99939.03;;;10.98;100.00
59053;BME280;44843;44.728;10.396;2023-11-21T00:11:47;99945.59;;;11.04;100.00
59053;BME280;44843;44.728;10.396;2023-11-21T00:14:12;99956.03;;;11.04;100.00
59053;BME280;44843;44.728;10.396;2023-11-21T00:16:40;99949.78;;;10.93;100.00
59053;BME280;44843;44.728;10.396;2023-11-21T00:19:05;99936.19;;;10.88;100.00
59053;BME280;44843;44.728;10.396;2023-11-21T00:21:30;99939.84;;;10.86;100.00
59053;BME280;44843;44.728;10.396;2023-11-21T00:23:56;99926.19;;;10.95;100.00
59053;BME280;44843;44.728;10.396;2023-11-21T00:26:21;99914.28;;;10.91;100.00
59053;BME280;44843;44.728;10.396;2023-11-21T00:28:46;99903.34;;;10.86;100.00
59053;BME280;44843;44.728;10.396;2023-11-21T00:31:12;99889.13;;;10.77;100.00
59053;BME280;44843;44.728;10.396;2023-11-21T00:33:37;99877.63;;;10.67;100.00
59053;BME280;44843;44.728;10.396;2023-11-21T00:36:03;99877.06;;;10.76;100.00
59053;BME280;44843;44.728;10.396;2023-11-21T00:38:28;99855.97;;;10.79;100.00
59053;BME280;44843;44.728;10.396;2023-11-21T00:40:53;99854.19;;;10.67;100.00
59053;BME280;44843;44.728;10.396;2023-11-21T00:43:24;99836.47;;;10.72;100.00
59053;BME280;44843;44.728;10.396;2023-11-21T00:45:49;99836.38;;;10.74;100.00
59053;BME280;44843;44.728;10.396;2023-11-21T00:48:15;99838.53;;;10.67;100.00
59053;BME280;44843;44.728;10.396;2023-11-21T00:50:40;99868.50;;;10.74;100.00
59053;BME280;44843;44.728;10.396;2023-11-21T00:53:06;99872.69;;;10.89;100.00
59053;BME280;44843;44.728;10.396;2023-11-21T00:55:32;99891.56;;;10.80;100.00
59053;BME280;44843;44.728;10.396;2023-11-21T00:57:58;99892.19;;;10.97;100.00
59053;BME280;44843;44.728;10.396;2023-11-21T01:00:25;99897.72;;;11.05;100.00
59053;BME280;44843;44.728;10.396;2023-11-21T01:02:50;99902.94;;;11.18;100.00
59053;BME280;44843;44.728;10.396;2023-11-21T01:05:15;99906.56;;;10.77;100.00
59053;BME280;44843;44.728;10.396;2023-11-21T01:07:41;99914.59;;;10.86;100.00
59053;BME280;44843;44.728;10.396;2023-11-21T01:10:07;99904.38;;;10.83;100.00
59053;BME280;44843;44.728;10.396;2023-11-21T01:12:35;99905.63;;;10.90;100.00
59053;BME280;44843;44.728;10.396;2023-11-21T01:15:01;99908.88;;;10.81;100.00
59053;BME280;44843;44.728;10.396;2023-11-21T01:17:27;99914.94;;;10.95;100.00
59053;BME280;44843;44.728;10.396;2023-11-21T01:19:52;99916.91;;;10.78;100.00
59053;BME280;44843;44.728;10.396;2023-11-21T01:22:17;99917.72;;;10.66;100.00
59053;BME280;44843;44.728;10.396;2023-11-21T01:24:47;99914.81;;;10.83;100.00
59053;BME280;44843;44.728;10.396;2023-11-21T01:27:12;99914.50;;;10.88;100.00
59053;BME280;44843;44.728;10.396;2023-11-21T01:29:38;99911.88;;;10.75;100.00
59053;BME280;44843;44.728;10.396;2023-11-21T01:32:03;99923.13;;;10.76;100.00
59053;BME280;44843;44.728;10.396;2023-11-21T01:34:29;99924.59;;;10.80;100.00
59053;BME280;44843;44.728;10.396;2023-11-21T01:36:55;99922.91;;;10.66;100.00
59053;BME280;44843;44.728;10.396;2023-11-21T01:39:21;99922.72;;;10.69;100.00
59053;BME280;44843;44.728;10.396;2023-11-21T01:41:50;99930.44;;;10.70;100.00
59053;BME280;44843;44.728;10.396;2023-11-21T01:44:15;99930.47;;;10.83;100.00
59053;BME280;44843;44.728;10.396;2023-11-21T01:46:42;99925.88;;;10.87;100.00
59053;BME280;44843;44.728;10.396;2023-11-21T01:49:08;99920.75;;;10.85;100.00
59053;BME280;44843;44.728;10.396;2023-11-21T01:51:35;99923.44;;;10.71;100.00
59053;BME280;44843;44.728;10.396;2023-11-21T01:54:02;99922.84;;;10.80;100.00
59053;BME280;44843;44.728;10.396;2023-11-21T01:56:30;99921.69;;;10.71;100.00
59053;BME280;44843;44.728;10.396;2023-11-21T01:58:57;99922.59;;;10.58;100.00
59053;BME280;44843;44.728;10.396;2023-11-21T02:01:22;99933.75;;;10.60;100.00
59053;BME280;44843;44.728;10.396;2023-11-21T02:03:48;99933.63;;;10.48;100.00
59053;BME280;44843;44.728;10.396;2023-11-21T02:06:13;99938.47;;;10.40;100.00
59053;BME280;44843;44.728;10.396;2023-11-21T02:08:38;99940.66;;;10.61;100.00
59053;BME280;44843;44.728;10.396;2023-11-21T02:11:05;99940.91;;;10.83;100.00
59053;BME280;44843;44.728;10.396;2023-11-21T02:13:31;99945.41;;;10.94;100.00
59053;BME280;44843;44.728;10.396;2023-11-21T02:15:57;99933.69;;;11.00;100.00
59053;BME280;44843;44.728;10.396;2023-11-21T02:18:23;99922.53;;;11.10;100.00
59053;BME280;44843;44.728;10.396;2023-11-21T02:20:48;99918.59;;;11.18;100.00
59053;BME280;44843;44.728;10.396;2023-11-21T02:23:14;99904.91;;;11.01;100.00
59053;BME280;44843;44.728;10.396;2023-11-21T02:25:39;99897.50;;;11.21;100.00
59053;BME280;44843;44.728;10.396;2023-11-21T02:28:05;99889.03;;;11.17;100.00
59053;BME280;44843;44.728;10.396;2023-11-21T02:30:32;99884.78;;;11.03;100.00
59053;BME280;44843;44.728;10.396;2023-11-21T02:32:57;99892.09;;;10.98;100.00
59053;BME280;44843;44.728;10.396;2023-11-21T02:35:23;99893.44;;;11.04;100.00
59053;BME280;44843;44.728;10.396;2023-11-21T02:37:51;99880.91;;;11.09;100.00
59053;BME280;44843;44.728;10.396;2023-11-21T02:40:17;99875.38;;;11.13;100.00
59053;BME280;44843;44.728;10.396;2023-11-21T02:42:50;99878.19;;;11.23;100.00
59053;BME280;44843;44.728;10.396;2023-11-21T02:45:20;99885.41;;;11.07;100.00
59053;BME280;44843;44.728;10.396;2023-11-21T02:47:46;99883.84;;;11.04;100.00
59053;BME280;44843;44.728;10.396;2023-11-21T02:50:12;99889.34;;;11.00;100.00
59053;BME280;44843;44.728;10.396;2023-11-21T02:52:38;99885.72;;;11.02;100.00
59053;BME280;44843;44.728;10.396;2023-11-21T02:55:05;99881.84;;;11.08;100.00
59053;BME280;44843;44.728;10.396;2023-11-21T02:57:32;99877.69;;;10.92;100.00
59053;BME280;44843;44.728;10.396;2023-11-21T02:59:58;99872.28;;;10.96;100.00
59053;BME280;44843;44.728;10.396;2023-11-21T03:02:25;99870.91;;;10.90;100.00
59053;BME280;44843;44.728;10.396;2023-11-21T03:04:50;99870.91;;;10.90;100.00
59053;BME280;44843;44.728;10.396;2023-11-21T03:07:16;99873.41;;;10.91;100.00
59053;BME280;44843;44.728;10.396;2023-11-21T03:09:42;99868.69;;;10.97;100.00
59053;BME280;44843;44.728;10.396;2023-11-21T03:12:08;99872.78;;;10.88;100.00
59053;BME280;44843;44.728;10.396;2023-11-21T03:14:34;99876.34;;;10.87;100.00
59053;BME280;44843;44.728;10.396;2023-11-21T03:16:59;99871.13;;;10.87;100.00
59053;BME280;44843;44.728;10.396;2023-11-21T03:19:25;99867.66;;;10.86;100.00
59053;BME280;44843;44.728;10.396;2023-11-21T03:21:50;99864.31;;;10.84;100.00
59053;BME280;44843;44.728;10.396;2023-11-21T03:24:18;99842.94;;;10.79;100.00
59053;BME280;44843;44.728;10.396;2023-11-21T03:26:45;99850.94;;;11.02;100.00
59053;BME280;44843;44.728;10.396;2023-11-21T03:29:11;99857.03;;;11.02;100.00
59053;BME280;44843;44.728;10.396;2023-11-21T03:31:37;99853.97;;;11.08;100.00
59053;BME280;44843;44.728;10.396;2023-11-21T03:34:02;99850.34;;;11.11;100.00
59053;BME280;44843;44.728;10.396;2023-11-21T03:36:28;99846.38;;;11.18;100.00
59053;BME280;44843;44.728;10.396;2023-11-21T03:38:54;99849.28;;;11.13;100.00
59053;BME280;44843;44.728;10.396;2023-11-21T03:41:20;99842.19;;;11.03;100.00
59053;BME280;44843;44.728;10.396;2023-11-21T03:43:46;99840.50;;;11.02;100.00
59053;BME280;44843;44.728;10.396;2023-11-21T03:46:11;99840.09;;;11.08;100.00
59053;BME280;44843;44.728;10.396;2023-11-21T03:48:37;99832.19;;;10.97;100.00
59053;BME280;44843;44.728;10.396;2023-11-21T03:51:03;99833.97;;;11.09;100.00
59053;BME280;44843;44.728;10.396;2023-11-21T03:53:28;99834.78;;;10.97;100.00
59053;BME280;44843;44.728;10.396;2023-11-21T03:55:54;99837.22;;;10.87;100.00
59053;BME280;44843;44.728;10.396;2023-11-21T03:58:19;99835.53;;;10.99;100.00
59053;BME280;44843;44.728;10.396;2023-11-21T04:00:46;99831.53;;;10.93;100.00
59053;BME280;44843;44.728;10.396;2023-11-21T04:03:12;99837.81;;;10.90;100.00
59053;BME280;44843;44.728;10.396;2023-11-21T04:05:38;99840.84;;;10.84;100.00
59053;BME280;44843;44.728;10.396;2023-11-21T04:08:04;99835.00;;;10.93;100.00
59053;BME280;44843;44.728;10.396;2023-11-21T04:10:29;99840.75;;;10.99;100.00
59053;BME280;44843;44.728;10.396;2023-11-21T04:12:55;99837.41;;;10.97;100.00
59053;BME280;44843;44.728;10.396;2023-11-21T04:15:20;99843.75;;;10.92;100.00
59053;BME280;44843;44.728;10.396;2023-11-21T04:17:45;99840.00;;;10.97;100.00
59053;BME280;44843;44.728;10.396;2023-11-21T04:20:11;99835.09;;;11.05;100.00
59053;BME280;44843;44.728;10.396;2023-11-21T04:22:40;99833.00;;;10.97;100.00
59053;BME280;44843;44.728;10.396;2023-11-21T04:25:14;99828.53;;;10.99;100.00
59053;BME280;44843;44.728;10.396;2023-11-21T04:27:40;99839.59;;;11.03;100.00
59053;BME280;44843;44.728;10.396;2023-11-21T04:30:09;99835.09;;;11.05;100.00
59053;BME280;44843;44.728;10.396;2023-11-21T04:32:35;99840.31;;;11.05;100.00
59053;BME280;44843;44.728;10.396;2023-11-21T04:35:01;99831.34;;;11.09;100.00
59053;BME280;44843;44.728;10.396;2023-11-21T04:37:26;99837.41;;;11.09;100.00
59053;BME280;44843;44.728;10.396;2023-11-21T04:39:52;99828.75;;;11.09;100.00
59053;BME280;44843;44.728;10.396;2023-11-21T04:42:17;99821.75;;;11.09;100.00
59053;BME280;44843;44.728;10.396;2023-11-21T04:44:42;99819.03;;;11.11;100.00
59053;BME280;44843;44.728;10.396;2023-11-21T04:47:09;99823.38;;;11.23;100.00
59053;BME280;44843;44.728;10.396;2023-11-21T04:49:34;99828.91;;;11.31;100.00
59053;BME280;44843;44.728;10.396;2023-11-21T04:52:00;99840.47;;;11.40;100.00
59053;BME280;44843;44.728;10.396;2023-11-21T04:54:26;99835.22;;;11.53;100.00
59053;BME280;44843;44.728;10.396;2023-11-21T04:56:52;99838.03;;;11.50;100.00
59053;BME280;44843;44.728;10.396;2023-11-21T04:59:17;99836.09;;;11.41;100.00
59053;BME280;44843;44.728;10.396;2023-11-21T05:01:43;99833.91;;;11.34;100.00
59053;BME280;44843;44.728;10.396;2023-11-21T05:04:08;99841.78;;;11.22;100.00
59053;BME280;44843;44.728;10.396;2023-11-21T05:06:34;99834.69;;;11.11;100.00
59053;BME280;44843;44.728;10.396;2023-11-21T05:08:59;99840.19;;;11.19;100.00
59053;BME280;44843;44.728;10.396;2023-11-21T05:11:28;99842.94;;;11.18;100.00
59053;BME280;44843;44.728;10.396;2023-11-21T05:13:57;99843.34;;;10.99;100.00
59053;BME280;44843;44.728;10.396;2023-11-21T05:16:25;99848.34;;;11.02;100.00
59053;BME280;44843;44.728;10.396;2023-11-21T05:18:52;99847.41;;;11.03;100.00
59053;BME280;44843;44.728;10.396;2023-11-21T05:21:18;99850.53;;;11.08;100.00
59053;BME280;44843;44.728;10.396;2023-11-21T05:23:46;99859.31;;;11.20;100.00
59053;BME280;44843;44.728;10.396;2023-11-21T05:26:11;99865.56;;;11.17;100.00
59053;BME280;44843;44.728;10.396;2023-11-21T05:28:36;99859.91;;;11.23;100.00
59053;BME280;44843;44.728;10.396;2023-11-21T05:31:02;99859.63;;;11.15;100.00
59053;BME280;44843;44.728;10.396;2023-11-21T05:33:27;99858.91;;;11.13;100.00
59053;BME280;44843;44.728;10.396;2023-11-21T05:35:53;99859.50;;;11.17;100.00
59053;BME280;44843;44.728;10.396;2023-11-21T05:38:18;99853.69;;;10.87;100.00
59053;BME280;44843;44.728;10.396;2023-11-21T05:40:44;99849.09;;;10.65;100.00
59053;BME280;44843;44.728;10.396;2023-11-21T05:43:09;99848.97;;;10.92;100.00
59053;BME280;44843;44.728;10.396;2023-11-21T05:45:34;99846.59;;;10.89;100.00
59053;BME280;44843;44.728;10.396;2023-11-21T05:48:00;99855.16;;;11.04;100.00
59053;BME280;44843;44.728;10.396;2023-11-21T05:50:25;99858.78;;;11.02;100.00
59053;BME280;44843;44.728;10.396;2023-11-21T05:52:50;99860.38;;;11.04;100.00
59053;BME280;44843;44.728;10.396;2023-11-21T05:55:16;99861.38;;;11.02;100.00
59053;BME280;44843;44.728;10.396;2023-11-21T05:57:43;99865.88;;;11.12;100.00
59053;BME280;44843;44.728;10.396;2023-11-21T06:00:10;99857.75;;;11.04;100.00
59053;BME280;44843;44.728;10.396;2023-11-21T06:02:38;99852.22;;;11.09;100.00
59053;BME280;44843;44.728;10.396;2023-11-21T06:05:04;99862.03;;;11.18;100.00
59053;BME280;44843;44.728;10.396;2023-11-21T06:07:30;99863.34;;;11.24;100.00
59053;BME280;44843;44.728;10.396;2023-11-21T06:09:55;99854.78;;;11.34;100.00
59053;BME280;44843;44.728;10.396;2023-11-21T06:12:20;99852.47;;;11.43;100.00
59053;BME280;44843;44.728;10.396;2023-11-21T06:14:46;99851.09;;;11.50;100.00
59053;BME280;44843;44.728;10.396;2023-11-21T06:17:13;99842.47;;;11.37;100.00
59053;BME280;44843;44.728;10.396;2023-11-21T06:19:38;99851.31;;;11.47;100.00
59053;BME280;44843;44.728;10.396;2023-11-21T06:22:04;99858.41;;;11.45;100.00
59053;BME280;44843;44.728;10.396;2023-11-21T06:24:29;99849.75;;;11.44;100.00
59053;BME280;44843;44.728;10.396;2023-11-21T06:26:54;99848.41;;;11.39;100.00
59053;BME280;44843;44.728;10.396;2023-11-21T06:29:20;99842.69;;;11.33;100.00
59053;BME280;44843;44.728;10.396;2023-11-21T06:31:45;99835.38;;;11.26;100.00
59053;BME280;44843;44.728;10.396;2023-11-21T06:34:11;99842.28;;;11.27;100.00
59053;BME280;44843;44.728;10.396;2023-11-21T06:36:37;99846.44;;;11.29;100.00
59053;BME280;44843;44.728;10.396;2023-11-21T06:39:02;99854.91;;;11.20;100.00
59053;BME280;44843;44.728;10.396;2023-11-21T06:41:33;99852.09;;;11.10;100.00
59053;BME280;44843;44.728;10.396;2023-11-21T06:43:58;99863.59;;;11.08;100.00
59053;BME280;44843;44.728;10.396;2023-11-21T06:46:24;99867.06;;;10.96;100.00
59053;BME280;44843;44.728;10.396;2023-11-21T06:48:49;99866.41;;;10.92;100.00
59053;BME280;44843;44.728;10.396;2023-11-21T06:51:15;99871.63;;;11.05;100.00
59053;BME280;44843;44.728;10.396;2023-11-21T06:53:41;99872.69;;;11.02;100.00
59053;BME280;44843;44.728;10.396;2023-11-21T06:56:15;99873.59;;;10.88;100.00
59053;BME280;44843;44.728;10.396;2023-11-21T06:58:41;99865.28;;;10.96;100.00
59053;BME280;44843;44.728;10.396;2023-11-21T07:01:06;99867.25;;;11.05;100.00
59053;BME280;44843;44.728;10.396;2023-11-21T07:03:32;99861.50;;;11.00;100.00
59053;BME280;44843;44.728;10.396;2023-11-21T07:05:57;99857.75;;;11.04;100.00
59053;BME280;44843;44.728;10.396;2023-11-21T07:08:23;99851.09;;;11.00;100.00
59053;BME280;44843;44.728;10.396;2023-11-21T07:10:48;99853.38;;;11.05;100.00
59053;BME280;44843;44.728;10.396;2023-11-21T07:13:15;99855.97;;;11.05;100.00
59053;BME280;44843;44.728;10.396;2023-11-21T07:15:41;99858.69;;;11.03;100.00
59053;BME280;44843;44.728;10.396;2023-11-21T07:18:06;99853.16;;;11.08;100.00
59053;BME280;44843;44.728;10.396;2023-11-21T07:20:33;99857.63;;;11.06;100.00
59053;BME280;44843;44.728;10.396;2023-11-21T07:22:58;99854.94;;;11.07;100.00
59053;BME280;44843;44.728;10.396;2023-11-21T07:25:25;99852.22;;;11.22;100.00
59053;BME280;44843;44.728;10.396;2023-11-21T07:27:51;99850.53;;;11.21;100.00
59053;BME280;44843;44.728;10.396;2023-11-21T07:30:16;99839.44;;;11.30;100.00
59053;BME280;44843;44.728;10.396;2023-11-21T07:32:42;99839.34;;;11.31;100.00
59053;BME280;44843;44.728;10.396;2023-11-21T07:35:10;99844.66;;;11.30;100.00
59053;BME280;44843;44.728;10.396;2023-11-21T07:37:35;99848.63;;;11.36;100.00
59053;BME280;44843;44.728;10.396;2023-11-21T07:40:01;99848.72;;;11.34;100.00
59053;BME280;44843;44.728;10.396;2023-11-21T07:42:28;99853.97;;;11.21;100.00
59053;BME280;44843;44.728;10.396;2023-11-21T07:44:53;99846.88;;;11.10;100.00
59053;BME280;44843;44.728;10.396;2023-11-21T07:47:18;99843.03;;;11.03;100.00
59053;BME280;44843;44.728;10.396;2023-11-21T07:49:44;99839.19;;;11.09;100.00
59053;BME280;44843;44.728;10.396;2023-11-21T07:52:10;99842.09;;;11.04;100.00
59053;BME280;44843;44.728;10.396;2023-11-21T07:54:35;99847.31;;;11.04;100.00
59053;BME280;44843;44.728;10.396;2023-11-21T07:57:01;99861.63;;;10.99;100.00
59053;BME280;44843;44.728;10.396;2023-11-21T07:59:28;99864.31;;;11.10;100.00
59053;BME280;44843;44.728;10.396;2023-11-21T08:01:53;99860.47;;;10.90;100.00
59053;BME280;44843;44.728;10.396;2023-11-21T08:04:19;99859.31;;;10.94;100.00
59053;BME280;44843;44.728;10.396;2023-11-21T08:06:44;99862.44;;;10.99;100.00
59053;BME280;44843;44.728;10.396;2023-11-21T08:09:10;99866.19;;;11.08;100.00
59053;BME280;44843;44.728;10.396;2023-11-21T08:11:37;99860.88;;;11.09;100.00
59053;BME280;44843;44.728;10.396;2023-11-21T08:14:04;99857.03;;;11.15;100.00
59053;BME280;44843;44.728;10.396;2023-11-21T08:16:30;99848.03;;;11.19;100.00
59053;BME280;44843;44.728;10.396;2023-11-21T08:18:55;99840.91;;;11.21;100.00
59053;BME280;44843;44.728;10.396;2023-11-21T08:21:21;99840.50;;;11.27;100.00
59053;BME280;44843;44.728;10.396;2023-11-21T08:23:49;99847.19;;;11.06;100.00
59053;BME280;44843;44.728;10.396;2023-11-21T08:26:18;99859.22;;;10.96;100.00
59053;BME280;44843;44.728;10.396;2023-11-21T08:28:44;99863.50;;;10.97;100.00
59053;BME280;44843;44.728;10.396;2023-11-21T08:31:09;99864.53;;;11.07;100.00
59053;BME280;44843;44.728;10.396;2023-11-21T08:33:35;99868.38;;;11.14;100.00
59053;BME280;44843;44.728;10.396;2023-11-21T08:36:00;99871.00;;;11.27;100.00
59053;BME280;44843;44.728;10.396;2023-11-21T08:38:26;99868.56;;;11.24;100.00
59053;BME280;44843;44.728;10.396;2023-11-21T08:40:53;99873.09;;;11.22;100.00
59053;BME280;44843;44.728;10.396;2023-11-21T08:43:19;99870.16;;;11.26;100.00
59053;BME280;44843;44.728;10.396;2023-11-21T08:45:45;99875.56;;;11.36;100.00
59053;BME280;44843;44.728;10.396;2023-11-21T08:48:10;99873.88;;;11.48;100.00
59053;BME280;44843;44.728;10.396;2023-11-21T08:50:37;99874.09;;;11.45;100.00
59053;BME280;44843;44.728;10.396;2023-11-21T08:53:02;99874.72;;;11.48;100.00
59053;BME280;44843;44.728;10.396;2023-11-21T08:55:27;99875.31;;;11.52;100.00
59053;BME280;44843;44.728;10.396;2023-11-21T08:57:53;99867.00;;;11.47;100.00
59053;BME280;44843;44.728;10.396;2023-11-21T09:00:19;99875.66;;;11.34;100.00
59053;BME280;44843;44.728;10.396;2023-11-21T09:02:45;99886.41;;;11.30;100.00
59053;BME280;44843;44.728;10.396;2023-11-21T09:05:11;99882.56;;;11.23;100.00
59053;BME280;44843;44.728;10.396;2023-11-21T09:07:38;99894.38;;;11.28;100.00
59053;BME280;44843;44.728;10.396;2023-11-21T09:10:05;99892.19;;;11.22;100.00
59053;BME280;44843;44.728;10.396;2023-11-21T09:12:35;99889.34;;;11.25;100.00
59053;BME280;44843;44.728;10.396;2023-11-21T09:15:04;99886.56;;;11.16;100.00
59053;BME280;44843;44.728;10.396;2023-11-21T09:17:31;99893.84;;;11.23;100.00
59053;BME280;44843;44.728;10.396;2023-11-21T09:19:56;99890.59;;;11.32;100.00
59053;BME280;44843;44.728;10.396;2023-11-21T09:22:22;99891.66;;;11.30;100.00
59053;BME280;44843;44.728;10.396;2023-11-21T09:24:50;99884.78;;;11.29;100.00
59053;BME280;44843;44.728;10.396;2023-11-21T09:27:15;99884.22;;;11.24;100.00
59053;BME280;44843;44.728;10.396;2023-11-21T09:29:42;99892.19;;;11.22;100.00
59053;BME280;44843;44.728;10.396;2023-11-21T09:32:08;99888.84;;;11.20;100.00
59053;BME280;44843;44.728;10.396;2023-11-21T09:34:37;99895.53;;;11.24;100.00
59053;BME280;44843;44.728;10.396;2023-11-21T09:37:04;99891.03;;;11.26;100.00
59053;BME280;44843;44.728;10.396;2023-11-21T09:39:31;99893.34;;;11.18;100.00
59053;BME280;44843;44.728;10.396;2023-11-21T09:42:59;99893.75;;;11.25;100.00
59053;BME280;44843;44.728;10.396;2023-11-21T09:47:38;99886.44;;;11.17;100.00
59053;BME280;44843;44.728;10.396;2023-11-21T09:50:06;99879.44;;;11.30;100.00
59053;BME280;44843;44.728;10.396;2023-11-21T09:52:49;99873.06;;;11.34;100.00
59053;BME280;44843;44.728;10.396;2023-11-21T09:55:18;99867.81;;;11.34;100.00
59053;BME280;44843;44.728;10.396;2023-11-21T09:57:46;99858.41;;;11.45;100.00
59053;BME280;44843;44.728;10.396;2023-11-21T10:00:14;99856.94;;;11.53;100.00
59053;BME280;44843;44.728;10.396;2023-11-21T10:02:43;99863.50;;;11.72;100.00
59053;BME280;44843;44.728;10.396;2023-11-21T10:05:09;99861.03;;;11.82;100.00
59053;BME280;44843;44.728;10.396;2023-11-21T10:07:38;99843.03;;;12.03;100.00
59053;BME280;44843;44.728;10.396;2023-11-21T10:10:06;99828.31;;;12.13;100.00
59053;BME280;44843;44.728;10.396;2023-11-21T10:12:33;99824.47;;;12.30;100.00
59053;BME280;44843;44.728;10.396;2023-11-21T10:15:01;99825.44;;;12.29;100.00
59053;BME280;44843;44.728;10.396;2023-11-21T10:17:29;99815.75;;;12.18;100.00
59053;BME280;44843;44.728;10.396;2023-11-21T10:20:03;99805.81;;;11.99;100.00
59053;BME280;44843;44.728;10.396;2023-11-21T10:22:31;99799.69;;;11.87;100.00
59053;BME280;44843;44.728;10.396;2023-11-21T10:24:56;99800.41;;;11.89;100.00
59053;BME280;44843;44.728;10.396;2023-11-21T10:27:22;99794.38;;;11.89;100.00
59053;BME280;44843;44.728;10.396;2023-11-21T10:29:51;99791.13;;;11.85;100.00
59053;BME280;44843;44.728;10.396;2023-11-21T10:32:16;99788.84;;;11.81;100.00
59053;BME280;44843;44.728;10.396;2023-11-21T10:34:42;99787.06;;;11.81;100.00
59053;BME280;44843;44.728;10.396;2023-11-21T10:37:13;99792.78;;;11.86;100.00
59053;BME280;44843;44.728;10.396;2023-11-21T10:39:39;99787.03;;;11.94;100.00
59053;BME280;44843;44.728;10.396;2023-11-21T10:42:08;99798.47;;;12.04;100.00
59053;BME280;44843;44.728;10.396;2023-11-21T10:44:34;99794.66;;;11.97;100.00
59053;BME280;44843;44.728;10.396;2023-11-21T10:47:00;99799.69;;;12.11;100.00
59053;BME280;44843;44.728;10.396;2023-11-21T10:49:26;99788.63;;;12.08;100.00
59053;BME280;44843;44.728;10.396;2023-11-21T10:51:53;99793.41;;;12.14;100.00
59053;BME280;44843;44.728;10.396;2023-11-21T10:54:23;99789.84;;;12.15;100.00
59053;BME280;44843;44.728;10.396;2023-11-21T10:56:50;99786.28;;;12.16;100.00
59053;BME280;44843;44.728;10.396;2023-11-21T10:59:18;99787.25;;;12.26;100.00
59053;BME280;44843;44.728;10.396;2023-11-21T11:01:46;99781.66;;;12.20;100.00
59053;BME280;44843;44.728;10.396;2023-11-21T11:04:12;99782.00;;;12.15;100.00
59053;BME280;44843;44.728;10.396;2023-11-21T11:06:50;99788.28;;;12.12;100.00
59053;BME280;44843;44.728;10.396;2023-11-21T11:09:17;99795.50;;;12.09;100.00
59053;BME280;44843;44.728;10.396;2023-11-21T11:11:42;99795.31;;;12.12;100.00
59053;BME280;44843;44.728;10.396;2023-11-21T11:14:12;99795.50;;;12.09;100.00
59053;BME280;44843;44.728;10.396;2023-11-21T11:16:39;99787.22;;;12.15;100.00
59053;BME280;44843;44.728;10.396;2023-11-21T11:19:11;99789.00;;;12.14;100.00
59053;BME280;44843;44.728;10.396;2023-11-21T11:27:44;99787.00;;;12.18;100.00
59053;BME280;44843;44.728;10.396;2023-11-21T11:38:31;99793.75;;;12.09;100.00
59053;BME280;44843;44.728;10.396;2023-11-21T11:41:01;99781.97;;;12.04;100.00
59053;BME280;44843;44.728;10.396;2023-11-21T11:43:29;99776.34;;;11.97;100.00
59053;BME280;44843;44.728;10.396;2023-11-21T11:45:56;99781.97;;;12.04;100.00
59053;BME280;44843;44.728;10.396;2023-11-21T11:48:22;99783.81;;;11.90;100.00
59053;BME280;44843;44.728;10.396;2023-11-21T11:53:35;99782.56;;;11.83;100.00
59053;BME280;44843;44.728;10.396;2023-11-21T11:58:47;99785.16;;;11.96;100.00
59053;BME280;44843;44.728;10.396;2023-11-21T12:01:13;99796.34;;;11.85;100.00
59053;BME280;44843;44.728;10.396;2023-11-21T12:03:38;99791.41;;;11.93;100.00
59053;BME280;44843;44.728;10.396;2023-11-21T12:06:05;99788.22;;;11.90;100.00
59053;BME280;44843;44.728;10.396;2023-11-21T12:08:34;99789.56;;;11.83;100.00
59053;BME280;44843;44.728;10.396;2023-11-21T12:11:01;99798.59;;;11.79;100.00
59053;BME280;44843;44.728;10.396;2023-11-21T12:13:28;99805.34;;;11.81;100.00
59053;BME280;44843;44.728;10.396;2023-11-21T12:15:53;99819.47;;;11.79;100.00
59053;BME280;44843;44.728;10.396;2023-11-21T12:18:20;99815.53;;;11.73;100.00
59053;BME280;44843;44.728;10.396;2023-11-21T12:20:46;99820.97;;;11.70;100.00
59053;BME280;44843;44.728;10.396;2023-11-21T12:23:14;99820.34;;;11.66;100.00
59053;BME280;44843;44.728;10.396;2023-11-21T12:25:41;99826.72;;;11.62;100.00
59053;BME280;44843;44.728;10.396;2023-11-21T12:28:07;99816.47;;;11.72;100.00
59053;BME280;44843;44.728;10.396;2023-11-21T12:30:34;99823.75;;;11.80;100.00
59053;BME280;44843;44.728;10.396;2023-11-21T12:33:01;99816.28;;;11.86;100.00
59053;BME280;44843;44.728;10.396;2023-11-21T12:35:31;99811.50;;;11.80;100.00
59053;BME280;44843;44.728;10.396;2023-11-21T12:38:00;99808.25;;;11.89;100.00
59053;BME280;44843;44.728;10.396;2023-11-21T12:40:27;99807.47;;;12.00;100.00
59053;BME280;44843;44.728;10.396;2023-11-21T12:42:54;99800.88;;;12.07;100.00
59053;BME280;44843;44.728;10.396;2023-11-21T12:45:22;99795.44;;;12.22;100.00
59053;BME280;44843;44.728;10.396;2023-11-21T12:47:55;99785.97;;;12.32;100.00
59053;BME280;44843;44.728;10.396;2023-11-21T12:50:25;99771.34;;;12.29;100.00
59053;BME280;44843;44.728;10.396;2023-11-21T12:53:01;99765.78;;;12.45;100.00
59053;BME280;44843;44.728;10.396;2023-11-21T12:55:30;99749.03;;;12.36;100.00
59053;BME280;44843;44.728;10.396;2023-11-21T12:57:56;99750.91;;;12.34;100.00
59053;BME280;44843;44.728;10.396;2023-11-21T13:00:33;99755.78;;;12.39;100.00